地図

経路データ

SID SEASON NUMBER BASIN SUBBASIN NAME ISO_TIME NATURE LAT LON WMO_WIND WMO_PRES WMO_AGENCY TRACK_TYPE DIST2LAND LANDFALL IFLAG USA_AGENCY USA_ATCF_ID USA_LAT USA_LON USA_RECORD USA_STATUS USA_WIND USA_PRES USA_SSHS USA_R34_NE USA_R34_SE USA_R34_SW USA_R34_NW USA_R50_NE USA_R50_SE USA_R50_SW USA_R50_NW USA_R64_NE USA_R64_SE USA_R64_SW USA_R64_NW USA_POCI USA_ROCI USA_RMW USA_EYE TOKYO_LAT TOKYO_LON TOKYO_GRADE TOKYO_WIND TOKYO_PRES TOKYO_R50_DIR TOKYO_R50_LONG TOKYO_R50_SHORT TOKYO_R30_DIR TOKYO_R30_LONG TOKYO_R30_SHORT TOKYO_LAND CMA_LAT CMA_LON CMA_CAT CMA_WIND CMA_PRES HKO_LAT HKO_LON HKO_CAT HKO_WIND HKO_PRES NEWDELHI_LAT NEWDELHI_LON NEWDELHI_GRADE NEWDELHI_WIND NEWDELHI_PRES NEWDELHI_CI NEWDELHI_DP NEWDELHI_POCI REUNION_LAT REUNION_LON REUNION_TYPE REUNION_WIND REUNION_PRES REUNION_TNUM REUNION_CI REUNION_RMW REUNION_R34_NE REUNION_R34_SE REUNION_R34_SW REUNION_R34_NW REUNION_R50_NE REUNION_R50_SE REUNION_R50_SW REUNION_R50_NW REUNION_R64_NE REUNION_R64_SE REUNION_R64_SW REUNION_R64_NW BOM_LAT BOM_LON BOM_TYPE BOM_WIND BOM_PRES BOM_TNUM BOM_CI BOM_RMW BOM_R34_NE BOM_R34_SE BOM_R34_SW BOM_R34_NW BOM_R50_NE BOM_R50_SE BOM_R50_SW BOM_R50_NW BOM_R64_NE BOM_R64_SE BOM_R64_SW BOM_R64_NW BOM_ROCI BOM_POCI BOM_EYE BOM_POS_METHOD BOM_PRES_METHOD NADI_LAT NADI_LON NADI_CAT NADI_WIND NADI_PRES WELLINGTON_LAT WELLINGTON_LON WELLINGTON_WIND WELLINGTON_PRES DS824_LAT DS824_LON DS824_STAGE DS824_WIND DS824_PRES TD9636_LAT TD9636_LON TD9636_STAGE TD9636_WIND TD9636_PRES TD9635_LAT TD9635_LON TD9635_WIND TD9635_PRES TD9635_ROCI NEUMANN_LAT NEUMANN_LON NEUMANN_CLASS NEUMANN_WIND NEUMANN_PRES MLC_LAT MLC_LON MLC_CLASS MLC_WIND MLC_PRES USA_GUST BOM_GUST BOM_GUST_PER REUNION_GUST REUNION_GUST_PER USA_SEAHGT USA_SEARAD_NE USA_SEARAD_SE USA_SEARAD_SW USA_SEARAD_NW STORM_SPEED STORM_DIR
2021111S10049 2021 19 SI MM JOBO 2021-04-21 00:00:00 TS -9.90000 48.8000 PROVISIONAL 250 250 O_____________ tcgp SH292021 -9.90000 48.8000 TS 45 1001 0 35 35 1009 120 25 7 292
2021111S10049 2021 19 SI MM JOBO 2021-04-21 03:00:00 TS -9.76761 48.4724 PROVISIONAL 268 268 P_____________ SH292021 -9.76761 48.4724 TS 50 999 0 35 40 10 7 7 10 1009 115 17 6 289
2021111S10049 2021 19 SI MM JOBO 2021-04-21 06:00:00 TS -9.70000 48.2000 PROVISIONAL 290 290 O_____________ tcgp SH292021 -9.70000 48.2000 TS 55 997 0 40 35 45 35 20 15 15 20 1010 110 10 5 274
2021111S10049 2021 19 SI MM JOBO 2021-04-21 09:00:00 TS -9.73491 48.0076 PROVISIONAL 299 289 P_____________ SH292021 -9.73491 48.0076 TS 55 996 0 40 37 47 37 20 15 15 20 1009 110 10 4 256
2021111S10049 2021 19 SI MM JOBO 2021-04-21 12:00:00 TS -9.80000 47.8000 PROVISIONAL 299 299 O_____________ tcgp SH292021 -9.80000 47.8000 TS 55 995 0 40 40 50 40 20 15 15 20 1009 110 10 5 262
2021111S10049 2021 19 SI MM JOBO 2021-04-21 15:00:00 TS -9.80755 47.4650 PROVISIONAL 317 317 P_____________ SH292021 -9.80755 47.4650 TS 52 997 0 40 40 42 37 20 17 17 20 1010 95 10 7 270
2021111S10049 2021 19 SI MM JOBO 2021-04-21 18:00:00 TS -9.80000 47.1000 PROVISIONAL 344 344 O_____________ tcgp SH292021 -9.80000 47.1000 TS 50 999 0 40 40 35 35 20 20 20 20 1011 80 10 6 270
2021111S10049 2021 19 SI MM JOBO 2021-04-21 21:00:00 TS -9.80741 46.8075 PROVISIONAL 367 367 P_____________ SH292021 -9.80741 46.8075 TS 50 997 0 40 47 37 45 20 20 20 20 1009 77 10 6 270
2021111S10049 2021 19 SI MM JOBO 2021-04-22 00:00:00 TS -9.80000 46.5000 PROVISIONAL 391 391 O_____________ tcgp SH292021 -9.80000 46.5000 TS 50 996 0 40 55 40 55 20 20 20 20 1008 75 10 7 274
2021111S10049 2021 19 SI MM JOBO 2021-04-22 03:00:00 TS -9.75757 46.0925 PROVISIONAL 422 422 P_____________ SH292021 -9.75757 46.0925 TS 50 997 0 40 57 47 50 1008 92 15 8 277
2021111S10049 2021 19 SI MM JOBO 2021-04-22 06:00:00 TS -9.70000 45.7000 PROVISIONAL 461 461 O_____________ tcgp SH292021 -9.70000 45.7000 TS 50 998 0 40 60 55 45 1009 110 20 7 279
2021111S10049 2021 19 SI MM JOBO 2021-04-22 09:00:00 TS -9.65744 45.4200 PROVISIONAL 485 485 P_____________ SH292021 -9.65744 45.4200 TS 47 999 0 40 65 52 40 1009 110 20 5 281
2021111S10049 2021 19 SI MM JOBO 2021-04-22 12:00:00 TS -9.60000 45.2000 PROVISIONAL 509 500 O_____________ tcgp SH292021 -9.60000 45.2000 TS 45 1000 0 40 70 50 35 1009 110 20 4 289
2021111S10049 2021 19 SI MM JOBO 2021-04-22 15:00:00 TS -9.51496 45.0000 PROVISIONAL 500 482 P_____________ SH292021 -9.51496 45.0000 TS 42 1002 0 50 52 60 30 1010 97 20 4 297
2021111S10049 2021 19 SI MM JOBO 2021-04-22 18:00:00 TS -9.40000 44.8000 PROVISIONAL 482 465 O_____________ tcgp SH292021 -9.40000 44.8000 TS 40 1005 0 60 35 70 25 1012 85 20 5 299
2021111S10049 2021 19 SI MM JOBO 2021-04-22 21:00:00 TS -9.27251 44.5500 PROVISIONAL 465 443 P_____________ SH292021 -9.27251 44.5500 TS 42 1003 0 60 35 70 25 1011 85 20 6 301
2021111S10049 2021 19 SI MM JOBO 2021-04-23 00:00:00 TS -9.10000 44.3000 PROVISIONAL 443 438 O_____________ tcgp SH292021 -9.10000 44.3000 TS 45 1001 0 60 35 70 25 1010 85 20 6 317
2021111S10049 2021 19 SI MM JOBO 2021-04-23 03:00:00 TS -8.82739 44.1300 PROVISIONAL 438 431 P_____________ SH292021 -8.82739 44.1300 TS 45 1001 0 57 52 65 22 1010 90 20 6 322
2021111S10049 2021 19 SI MM JOBO 2021-04-23 06:00:00 TS -8.60000 43.9000 PROVISIONAL 431 395 O_____________ tcgp SH292021 -8.60000 43.9000 TS 45 1001 0 55 70 60 20 1010 95 20 7 289
2021111S10049 2021 19 SI MM JOBO 2021-04-23 09:00:00 TS -8.60010 43.4727 PROVISIONAL 395 353 P_____________ SH292021 -8.60010 43.4727 TS 42 1001 0 50 65 55 25 1009 92 20 9 270
2021111S10049 2021 19 SI MM JOBO 2021-04-23 12:00:00 TS -8.60000 43.0000 PROVISIONAL 353 344 O_____________ tcgp SH292021 -8.60000 43.0000 TS 40 1002 0 45 60 50 30 1009 90 20 9 286
2021111S10049 2021 19 SI MM JOBO 2021-04-23 15:00:00 TS -8.36491 42.6424 PROVISIONAL 334 310 P_____________ SH292021 -8.36491 42.6424 TS 37 1003 0 37 55 47 27 1009 90 20 9 306
2021111S10049 2021 19 SI MM JOBO 2021-04-23 18:00:00 TS -8.10000 42.3000 PROVISIONAL 310 272 O_____________ tcgp SH292021 -8.10000 42.3000 TS 35 1005 0 30 50 45 25 1009 90 20 8 299
2021111S10049 2021 19 SI MM JOBO 2021-04-23 21:00:00 TS -7.96246 41.9150 PROVISIONAL 272 228 P_____________ SH292021 -7.96246 41.9150 TS 35 1005 0 37 47 45 32 1009 90 20 8 284
2021111S10049 2021 19 SI MM JOBO 2021-04-24 00:00:00 TS -7.90000 41.5000 PROVISIONAL 228 176 O_____________ tcgp SH292021 -7.90000 41.5000 TS 35 1005 0 45 45 45 40 1009 90 20 9 275
2021111S10049 2021 19 SI MM JOBO 2021-04-24 03:00:00 TS -7.88507 41.0201 PROVISIONAL 176 132 P_____________ SH292021 -7.88507 41.0201 TS 35 1005 0 45 45 42 40 1009 90 20 9 270
2021111S10049 2021 19 SI MM JOBO 2021-04-24 06:00:00 TS -7.90000 40.6000 PROVISIONAL 132 110 O_____________ tcgp SH292021 -7.90000 40.6000 TS 35 1005 0 45 45 40 40 1009 90 20 7 270
2021111S10049 2021 19 SI MM JOBO 2021-04-24 09:00:00 TS -7.88492 40.3550 PROVISIONAL 110 88 P_____________ SH292021 -7.88492 40.3550 TS 32 1005 -1 1008 82 20 4 270
2021111S10049 2021 19 SI MM JOBO 2021-04-24 12:00:00 TS -7.90000 40.2000 PROVISIONAL 88 77 O_____________ tcgp SH292021 -7.90000 40.2000 TD 30 1006 -1 1008 75 20 3 252
2021111S10049 2021 19 SI MM JOBO 2021-04-24 15:00:00 TS -7.98004 40.0525 PROVISIONAL 77 55 P_____________ SH292021 -7.98004 40.0525 TD 27 1006 -1 1008 75 22 4 236
2021111S10049 2021 19 SI MM JOBO 2021-04-24 18:00:00 TS -8.10000 39.9000 PROVISIONAL 55 O_____________ tcgp SH292021 -8.10000 39.9000 TD 25 1006 -1 1008 75 25 4 232

IBTrACS Databaseについて

本データベースは、米国NOAAが公開する1842年以降の世界の熱帯低気圧のベストトラックデータアーカイブInternational Best Track Archive for Climate Stewardship (IBTrACS)を、ウェブで閲覧しやすい形式に変換したものです。

最終更新日:2021-12-06